createdAt,value
2024-02-16T00:00:27.508Z,88.86
2024-02-16T00:05:52.859Z,88.94
2024-02-16T00:10:56.242Z,88.99
2024-02-16T00:15:59.571Z,89.01
2024-02-16T00:21:03.417Z,89.00
2024-02-16T00:26:08.542Z,89.13
2024-02-16T00:31:11.808Z,89.08
2024-02-16T00:36:15.686Z,89.12
2024-02-16T00:41:21.778Z,89.13
2024-02-16T00:46:25.208Z,89.19
2024-02-16T00:51:28.628Z,89.19
2024-02-16T00:56:35.397Z,89.20
2024-02-16T01:01:38.674Z,89.25
2024-02-16T01:06:41.907Z,89.28
2024-02-16T01:11:45.175Z,89.25
2024-02-16T01:16:48.423Z,89.29
2024-02-16T01:21:58.878Z,89.30
2024-02-16T01:27:02.924Z,89.39
2024-02-16T01:32:06.332Z,89.42
2024-02-16T01:37:09.368Z,89.47
2024-02-16T01:42:14.168Z,89.59
2024-02-16T01:47:20.061Z,89.57
2024-02-16T01:52:23.202Z,89.58
2024-02-16T01:57:26.941Z,89.51
2024-02-16T02:02:30.096Z,89.54
2024-02-16T02:07:33.312Z,89.56
2024-02-16T02:12:36.517Z,89.57
2024-02-16T02:17:40.589Z,89.49
2024-02-16T02:22:44.161Z,89.57
2024-02-16T02:27:47.804Z,89.60
2024-02-16T02:32:53.688Z,89.56
2024-02-16T02:37:56.753Z,89.60
2024-02-16T02:42:59.672Z,89.65
2024-02-16T02:48:02.841Z,89.62
2024-02-16T02:53:06.053Z,89.72
2024-02-16T02:58:09.107Z,89.82
2024-02-16T03:03:12.295Z,89.82
2024-02-16T03:08:15.816Z,89.74
2024-02-16T03:13:20.226Z,89.82
2024-02-16T03:18:24.111Z,89.79
2024-02-16T03:23:27.531Z,89.75
2024-02-16T03:28:30.614Z,89.81
2024-02-16T03:33:34.063Z,89.77
2024-02-16T03:38:37.257Z,89.79
2024-02-16T03:43:40.460Z,89.75
2024-02-16T03:48:44.136Z,89.68
2024-02-16T03:53:47.879Z,89.68
2024-02-16T03:58:51.114Z,89.71
2024-02-16T04:03:54.362Z,89.71
2024-02-16T04:08:58.007Z,89.71
2024-02-16T04:14:01.476Z,89.65
2024-02-16T04:19:04.842Z,89.74
2024-02-16T04:24:09.063Z,89.74
2024-02-16T04:29:13.003Z,89.72
2024-02-16T04:34:16.175Z,89.60
2024-02-16T04:39:21.175Z,89.50
2024-02-16T04:44:24.477Z,89.43
2024-02-16T04:49:27.643Z,89.47
2024-02-16T04:54:31.024Z,89.43
2024-02-16T04:59:34.118Z,89.39
2024-02-16T05:04:37.232Z,89.30
2024-02-16T05:09:41.188Z,89.24
2024-02-16T05:14:44.261Z,89.24
2024-02-16T05:19:47.594Z,89.20
2024-02-16T05:24:56.134Z,89.13
2024-02-16T05:29:59.894Z,89.18
2024-02-16T05:35:12.661Z,89.21
2024-02-16T05:40:31.867Z,89.21
2024-02-16T05:45:36.780Z,89.14
2024-02-16T05:50:39.982Z,88.97
2024-02-16T05:55:45.613Z,88.93
2024-02-16T06:00:49.613Z,88.90
2024-02-16T06:05:52.732Z,88.74
2024-02-16T06:10:55.957Z,88.68
2024-02-16T06:15:59.047Z,88.82
2024-02-16T06:21:05.260Z,88.76
2024-02-16T06:26:08.470Z,88.69
2024-02-16T06:31:12.128Z,88.64
2024-02-16T06:36:15.203Z,88.41
2024-02-16T06:41:18.238Z,88.43
2024-02-16T06:46:21.455Z,88.28
2024-02-16T06:51:27.930Z,88.17
2024-02-16T06:56:32.067Z,88.37
2024-02-16T07:01:35.129Z,88.22
2024-02-16T07:06:38.299Z,88.06
2024-02-16T07:11:41.374Z,88.05
2024-02-16T07:16:44.388Z,87.87
2024-02-16T07:21:47.522Z,87.64
2024-02-16T07:26:50.665Z,87.69
2024-02-16T07:31:53.828Z,87.43
2024-02-16T07:36:58.011Z,87.33
2024-02-16T07:42:01.049Z,87.14
2024-02-16T07:47:04.594Z,86.89
2024-02-16T07:52:07.662Z,86.67
2024-02-16T07:57:10.700Z,86.67
2024-02-16T08:02:16.784Z,86.35
2024-02-16T08:07:19.961Z,85.78
2024-02-16T08:12:23.531Z,85.39
2024-02-16T08:17:26.623Z,85.18
2024-02-16T08:22:29.810Z,85.01
2024-02-16T08:27:33.685Z,84.75
2024-02-16T08:32:36.714Z,84.67
2024-02-16T08:37:40.304Z,84.39
2024-02-16T08:42:44.051Z,84.25
2024-02-16T08:47:50.489Z,84.08
2024-02-16T08:52:56.565Z,83.78
2024-02-16T08:57:59.653Z,83.69
2024-02-16T09:03:07.635Z,83.48
2024-02-16T09:08:11.207Z,83.59
2024-02-16T09:13:14.307Z,83.70
2024-02-16T09:18:17.909Z,84.18
2024-02-16T09:23:21.087Z,83.89
2024-02-16T09:28:29.848Z,83.91
2024-02-16T09:33:36.485Z,84.07
2024-02-16T09:38:39.818Z,83.75
2024-02-16T09:43:44.858Z,83.86
2024-02-16T09:48:54.302Z,83.13
2024-02-16T09:54:00.246Z,82.82
2024-02-16T09:59:06.288Z,82.57
2024-02-16T10:04:11.049Z,82.44
2024-02-16T10:09:25.128Z,82.04
2024-02-16T10:14:29.530Z,81.91
2024-02-16T10:19:43.374Z,82.31
2024-02-16T10:24:47.564Z,81.96
2024-02-16T10:29:55.582Z,81.79
2024-02-16T10:34:59.853Z,81.63
2024-02-16T10:40:04.386Z,81.23
2024-02-16T10:45:08.699Z,80.36
2024-02-16T10:50:13.669Z,79.72
2024-02-16T10:55:18.223Z,79.29
2024-02-16T11:00:22.313Z,78.94
2024-02-16T11:05:48.281Z,78.47
2024-02-16T11:11:05.054Z,77.24
2024-02-16T11:16:10.585Z,77.20
2024-02-16T11:21:16.428Z,76.61
2024-02-16T11:26:19.454Z,76.56
2024-02-16T11:31:23.229Z,77.19
2024-02-16T11:36:29.345Z,76.90
2024-02-16T11:41:32.435Z,75.93
2024-02-16T11:46:36.889Z,75.40
2024-02-16T11:51:40.821Z,75.56
2024-02-16T11:56:52.921Z,75.72
2024-02-16T12:01:59.808Z,75.94
2024-02-16T12:07:05.930Z,75.64
2024-02-16T12:12:09.537Z,76.00
2024-02-16T12:17:12.563Z,74.77
2024-02-16T12:22:22.798Z,74.59
2024-02-16T12:27:25.865Z,74.96
2024-02-16T12:32:29.517Z,74.76
2024-02-16T12:37:32.638Z,74.82
2024-02-16T12:42:36.080Z,74.42
2024-02-16T12:47:41.804Z,74.26
2024-02-16T12:52:54.962Z,73.17
2024-02-16T12:58:09.475Z,73.89
2024-02-16T13:03:21.760Z,73.04
2024-02-16T13:08:29.418Z,72.08
2024-02-16T13:13:33.287Z,72.96
2024-02-16T13:18:38.737Z,71.88
2024-02-16T13:23:41.956Z,71.86
2024-02-16T13:28:45.105Z,72.06
2024-02-16T13:33:48.244Z,72.08
2024-02-16T13:38:51.500Z,72.17
2024-02-16T13:43:54.773Z,72.59
2024-02-16T13:48:58.848Z,72.39
2024-02-16T13:54:02.528Z,72.00
2024-02-16T13:59:09.093Z,72.42
2024-02-16T14:04:15.958Z,72.90
2024-02-16T14:09:24.333Z,72.10
2024-02-16T14:14:37.994Z,72.08
2024-02-16T14:19:42.884Z,72.88
2024-02-16T14:24:46.234Z,73.04
2024-02-16T14:29:49.263Z,73.25
2024-02-16T14:34:53.030Z,73.04
2024-02-16T14:39:59.916Z,73.38
2024-02-16T14:45:06.979Z,73.83
2024-02-16T14:50:22.643Z,74.28
2024-02-16T14:55:28.109Z,74.18
2024-02-16T15:00:32.448Z,74.56
2024-02-16T15:05:36.473Z,74.71
2024-02-16T15:10:41.893Z,74.51
2024-02-16T15:15:45.504Z,74.64
2024-02-16T15:20:51.271Z,74.74
2024-02-16T15:25:57.917Z,74.73
2024-02-16T15:31:12.829Z,74.97
2024-02-16T15:36:16.488Z,75.07
2024-02-16T15:41:19.535Z,75.01
2024-02-16T15:46:22.537Z,75.08
2024-02-16T15:51:25.585Z,75.28
2024-02-16T15:56:28.997Z,75.46
2024-02-16T16:01:38.660Z,75.48
2024-02-16T16:06:43.429Z,75.68
2024-02-16T16:11:47.202Z,75.85
2024-02-16T16:16:55.054Z,76.04
2024-02-16T16:22:02.126Z,76.24
2024-02-16T16:27:10.031Z,76.33
2024-02-16T16:32:14.622Z,76.51
2024-02-16T16:37:17.669Z,76.79
2024-02-16T16:42:20.805Z,77.03
2024-02-16T16:47:24.573Z,77.06
2024-02-16T16:52:27.752Z,77.39
2024-02-16T16:57:30.890Z,77.45
2024-02-16T17:02:34.811Z,77.76
2024-02-16T17:07:37.839Z,77.81
2024-02-16T17:12:41.922Z,78.05
2024-02-16T17:17:49.970Z,78.00
2024-02-16T17:22:54.822Z,78.29
2024-02-16T17:27:58.332Z,78.47
2024-02-16T17:33:02.951Z,78.51
2024-02-16T17:38:06.037Z,79.01
2024-02-16T17:43:09.203Z,79.10
2024-02-16T17:48:12.721Z,79.24
2024-02-16T17:53:16.031Z,79.38
2024-02-16T17:58:19.328Z,79.46
2024-02-16T18:03:22.521Z,79.57
2024-02-16T18:08:27.871Z,79.67
2024-02-16T18:13:32.440Z,79.70
2024-02-16T18:18:35.515Z,79.86
2024-02-16T18:23:42.968Z,80.04
2024-02-16T18:28:46.383Z,80.15
2024-02-16T18:33:49.878Z,80.33
2024-02-16T18:38:53.189Z,80.32
2024-02-16T18:43:56.122Z,80.56
2024-02-16T18:48:59.666Z,80.75
2024-02-16T18:54:03.961Z,80.89
2024-02-16T18:59:09.441Z,80.93
2024-02-16T19:04:12.571Z,80.86
2024-02-16T19:09:15.625Z,80.86
2024-02-16T19:14:19.786Z,80.79
2024-02-16T19:19:24.090Z,80.83
2024-02-16T19:24:33.492Z,80.93
2024-02-16T19:29:43.206Z,80.89
2024-02-16T19:34:46.294Z,80.86
2024-02-16T19:39:49.385Z,80.89
2024-02-16T19:44:52.510Z,81.06
2024-02-16T19:49:55.550Z,81.09
2024-02-16T19:54:59.984Z,81.01
2024-02-16T20:00:04.926Z,80.93
2024-02-16T20:05:08.541Z,80.93
2024-02-16T20:10:12.061Z,80.85
2024-02-16T20:15:16.060Z,80.78
2024-02-16T20:20:23.446Z,80.76
2024-02-16T20:25:27.448Z,80.78
2024-02-16T20:30:31.449Z,80.61
2024-02-16T20:35:34.592Z,80.48
2024-02-16T20:40:37.747Z,80.46
2024-02-16T20:45:40.921Z,80.15
2024-02-16T20:50:43.978Z,80.28
2024-02-16T20:55:47.159Z,80.15
2024-02-16T21:00:50.276Z,80.03
2024-02-16T21:05:53.414Z,79.93
2024-02-16T21:10:56.831Z,80.11
2024-02-16T21:15:59.789Z,80.10
2024-02-16T21:21:04.615Z,80.11
2024-02-16T21:26:07.539Z,80.19
2024-02-16T21:31:10.462Z,80.23
2024-02-16T21:36:16.027Z,80.03
2024-02-16T21:41:19.199Z,79.68
2024-02-16T21:46:30.868Z,79.79
2024-02-16T21:51:36.644Z,79.75
2024-02-16T21:56:39.760Z,79.84
2024-02-16T22:01:42.771Z,79.96
2024-02-16T22:06:46.646Z,79.94
2024-02-16T22:11:50.093Z,79.93
2024-02-16T22:16:53.135Z,79.68
2024-02-16T22:21:58.197Z,79.67
2024-02-16T22:27:01.464Z,79.58
2024-02-16T22:32:12.178Z,79.50
2024-02-16T22:37:20.317Z,79.50
2024-02-16T22:42:23.426Z,79.39
2024-02-16T22:47:26.412Z,79.46
2024-02-16T22:52:29.536Z,79.39
2024-02-16T22:57:32.690Z,79.31
2024-02-16T23:02:36.344Z,79.39
2024-02-16T23:07:39.253Z,79.44
2024-02-16T23:12:43.556Z,79.72
2024-02-16T23:17:48.161Z,79.94
2024-02-16T23:22:58.789Z,80.15
2024-02-16T23:28:02.082Z,80.21
2024-02-16T23:33:05.969Z,80.31
2024-02-16T23:38:09.201Z,80.53
2024-02-16T23:43:13.063Z,80.52
2024-02-16T23:48:16.271Z,80.64
2024-02-16T23:53:19.225Z,80.82
2024-02-16T23:58:22.392Z,80.68
